Time;durP1;ratioP1;P1;durP2;ratioP2;P2;SDS_P1;SDS_P2;PMS_P1;PMS_P2;Temp;Humidity;BMP_temperature;BMP_pressure;BME280_temperature;BME280_humidity;BME280_pressure;Samples;Min_cycle;Max_cycle;Signal;HPM_P1;HPM_P2
2023/03/01 00:00:07;;;;;;;41.00;23.00;;;;;;;-146.25;100.00;52303.31;2089380;28;20041;-66
2023/03/01 00:01:21;;;;;;;43.40;23.10;;;;;;;-146.25;100.00;52291.16;2088632;28;20922;-67
2023/03/01 00:02:22;;;;;;;43.40;23.38;;;;;;;-146.25;100.00;52264.78;2088592;28;28705;-66
2023/03/01 00:03:24;;;;;;;39.63;22.58;;;;;;;-146.25;100.00;52260.72;2088059;28;36643;-66
2023/03/01 00:04:27;;;;;;;43.20;23.23;;;;;;;-146.25;100.00;52339.81;2088048;28;38227;-64
2023/03/01 00:05:29;;;;;;;39.63;22.45;;;;;;;-146.25;100.00;52301.28;2088387;28;30889;-66
2023/03/01 00:06:33;;;;;;;43.45;22.30;;;;;;;-146.25;100.00;52258.72;2088207;28;20050;-66
2023/03/01 00:07:34;;;;;;;43.20;22.55;;;;;;;-146.25;100.00;52268.84;2088275;28;38634;-66
2023/03/01 00:08:37;;;;;;;39.40;23.13;;;;;;;-146.25;100.00;52293.19;2088188;28;35110;-67
2023/03/01 00:09:41;;;;;;;37.22;22.15;;;;;;;-146.25;100.00;52311.44;2088065;28;39101;-67
2023/03/01 00:10:42;;;;;;;37.92;21.15;;;;;;;-146.25;100.00;52295.19;2088251;28;20914;-66
2023/03/01 00:11:45;;;;;;;38.80;21.52;;;;;;;-146.25;100.00;52270.88;2087977;28;32733;-66
2023/03/01 00:12:46;;;;;;;35.55;20.88;;;;;;;-146.25;100.00;52285.06;2087853;28;36584;-67
2023/03/01 00:13:52;;;;;;;42.00;22.48;;;;;;;-146.25;100.00;52317.50;2088819;28;20910;-67
2023/03/01 00:14:54;;;;;;;36.78;21.05;;;;;;;-146.25;100.00;52301.28;2088282;28;36377;-67
2023/03/01 00:15:58;;;;;;;39.08;21.63;;;;;;;-146.25;100.00;52299.25;2090106;28;26484;-67
2023/03/01 00:17:00;;;;;;;40.90;21.90;;;;;;;-146.25;100.00;52331.69;2088466;28;37031;-67
2023/03/01 00:18:04;;;;;;;38.33;22.33;;;;;;;-146.25;100.00;52262.75;2079186;28;20088;-67
2023/03/01 00:19:17;;;;;;;38.90;21.95;;;;;;;-146.25;100.00;52327.66;2080561;28;20050;-67
2023/03/01 00:20:19;;;;;;;37.58;21.63;;;;;;;-146.25;100.00;52321.56;2079534;28;34946;-66
2023/03/01 00:21:26;;;;;;;43.13;24.55;;;;;;;-146.25;100.00;52291.16;2080296;28;33692;-67
2023/03/01 00:22:30;;;;;;;41.08;22.27;;;;;;;-146.25;100.00;52299.25;2088985;28;24120;-67
2023/03/01 00:23:35;;;;;;;42.72;22.77;;;;;;;-146.25;100.00;52303.31;2087615;28;35863;-67
2023/03/01 00:24:36;;;;;;;46.08;23.80;;;;;;;-146.25;100.00;52260.72;2079418;28;31318;-66
2023/03/01 00:25:43;;;;;;;43.10;23.25;;;;;;;-146.25;100.00;52335.75;2079512;28;20121;-67
2023/03/01 00:26:44;;;;;;;45.28;24.10;;;;;;;-146.25;100.00;52246.53;2087826;28;32748;-67
2023/03/01 00:27:48;;;;;;;42.10;22.33;;;;;;;-146.25;100.00;52281.00;2088385;28;20907;-67
2023/03/01 00:28:51;;;;;;;37.33;21.83;;;;;;;-146.25;100.00;52283.03;2088888;28;20049;-67
2023/03/01 00:29:53;;;;;;;44.45;23.13;;;;;;;-146.25;100.00;52268.84;2079191;28;24479;-68
2023/03/01 00:30:54;;;;;;;40.38;23.02;;;;;;;-146.25;100.00;52307.38;2080009;28;28196;-68
2023/03/01 00:31:56;;;;;;;43.42;23.58;;;;;;;-146.25;100.00;52305.34;2088006;28;20071;-68
2023/03/01 00:32:58;;;;;;;42.78;24.10;;;;;;;-146.25;100.00;52315.47;2088562;28;20025;-69
2023/03/01 00:34:05;;;;;;;42.45;24.60;;;;;;;-146.25;100.00;52311.44;2079294;28;20042;-68
2023/03/01 00:35:08;;;;;;;44.28;24.13;;;;;;;-146.25;100.00;52289.13;2080064;28;22334;-68
2023/03/01 00:36:13;;;;;;;43.35;23.40;;;;;;;-146.25;100.00;52293.19;2079370;28;20994;-68
2023/03/01 00:37:15;;;;;;;40.25;23.42;;;;;;;-146.25;100.00;52287.09;2080013;28;24450;-68
2023/03/01 00:38:17;;;;;;;40.08;21.42;;;;;;;-146.25;100.00;52317.50;2079235;28;20030;-68
2023/03/01 00:39:18;;;;;;;40.42;23.35;;;;;;;-146.25;100.00;52297.22;2079044;28;27009;-68
2023/03/01 00:40:23;;;;;;;38.47;21.25;;;;;;;-146.25;100.00;52307.38;2079192;28;20072;-69
2023/03/01 00:41:28;;;;;;;38.38;21.33;;;;;;;-146.25;100.00;52311.44;2080789;28;27172;-68
2023/03/01 00:42:33;;;;;;;42.35;22.15;;;;;;;-146.25;100.00;52283.03;2079422;28;20045;-69
2023/03/01 00:43:37;;;;;;;39.55;23.20;;;;;;;-146.25;100.00;52303.31;2080282;28;20037;-69
2023/03/01 00:44:40;;;;;;;40.03;23.00;;;;;;;-146.25;100.00;52307.38;2088441;28;20041;-68
2023/03/01 00:45:44;;;;;;;39.72;22.02;;;;;;;-146.25;100.00;52315.47;2088785;28;26065;-69
2023/03/01 00:46:45;;;;;;;40.53;23.13;;;;;;;-146.25;100.00;52276.97;2088231;28;20038;-69
2023/03/01 00:47:49;;;;;;;41.30;22.25;;;;;;;-146.25;100.00;52281.00;2079007;28;37489;-69
2023/03/01 00:48:51;;;;;;;39.45;22.33;;;;;;;-146.25;100.00;52287.09;2079739;28;23522;-69
2023/03/01 00:49:52;;;;;;;41.53;23.08;;;;;;;-146.25;100.00;52307.38;2088372;28;28295;-69
2023/03/01 00:50:54;;;;;;;40.60;22.92;;;;;;;-146.25;100.00;52315.47;2078934;28;33240;-69
2023/03/01 00:52:00;;;;;;;42.08;22.48;;;;;;;-146.25;100.00;52281.00;2079566;28;28401;-69
2023/03/01 00:53:02;;;;;;;39.47;22.33;;;;;;;-146.25;100.00;52307.38;2087789;28;28150;-69
2023/03/01 00:54:04;;;;;;;41.10;22.48;;;;;;;-146.25;100.00;52291.16;2088310;28;34345;-69
2023/03/01 00:55:08;;;;;;;42.95;23.23;;;;;;;-146.25;100.00;52254.66;2079261;28;20902;-69
2023/03/01 00:56:14;;;;;;;38.55;20.95;;;;;;;-146.25;100.00;52287.09;2079710;28;27315;-69
2023/03/01 00:57:15;;;;;;;38.30;21.75;;;;;;;-146.25;100.00;52256.69;2088116;28;25795;-69
2023/03/01 00:58:17;;;;;;;42.90;21.80;;;;;;;-146.25;100.00;52278.97;2088521;28;20041;-69
2023/03/01 00:59:23;;;;;;;37.13;20.42;;;;;;;-146.25;100.00;52285.06;2088076;28;20092;-69
2023/03/01 01:00:27;;;;;;;33.80;19.45;;;;;;;-146.25;100.00;52293.19;2078752;28;30444;-69
2023/03/01 01:01:31;;;;;;;33.70;19.95;;;;;;;-146.25;100.00;52285.06;2080016;28;20252;-69
2023/03/01 01:02:34;;;;;;;39.70;21.67;;;;;;;-146.25;100.00;52291.16;2078518;28;34659;-69
2023/03/01 01:03:35;;;;;;;41.25;21.40;;;;;;;-146.25;100.00;52317.50;2071380;28;20043;-70
2023/03/01 01:04:37;;;;;;;40.83;23.00;;;;;;;-146.25;100.00;52287.09;2070670;28;31870;-69
2023/03/01 01:05:39;;;;;;;42.03;22.77;;;;;;;-146.25;100.00;52309.41;2078528;28;33997;-69
2023/03/01 01:06:46;;;;;;;41.72;21.30;;;;;;;-146.25;100.00;52264.78;2078965;28;34577;-69
2023/03/01 01:07:48;;;;;;;41.33;23.27;;;;;;;-146.25;100.00;52281.00;2075381;28;26218;-69
2023/03/01 01:08:51;;;;;;;36.70;21.23;;;;;;;-146.25;100.00;52315.47;2079484;28;20100;-69
2023/03/01 01:09:53;;;;;;;40.67;21.48;;;;;;;-146.25;100.00;52293.19;2083639;28;28316;-69
2023/03/01 01:10:57;;;;;;;45.50;23.35;;;;;;;-146.25;100.00;52246.53;2088450;28;20041;-69
2023/03/01 01:11:58;;;;;;;45.53;24.30;;;;;;;-146.25;100.00;52309.41;2087428;28;31018;-70
2023/03/01 01:13:00;;;;;;;41.65;21.60;;;;;;;-146.25;100.00;52289.13;2088048;28;33676;-69
2023/03/01 01:14:07;;;;;;;42.30;22.00;;;;;;;-146.25;100.00;52264.78;2088006;28;20109;-69
2023/03/01 01:15:12;;;;;;;42.08;22.50;;;;;;;-146.25;100.00;52315.47;2087936;28;31771;-70
2023/03/01 01:16:15;;;;;;;38.58;21.83;;;;;;;-146.25;100.00;52283.03;2088057;28;22246;-69
2023/03/01 01:17:17;;;;;;;40.45;22.40;;;;;;;-146.25;100.00;52285.06;2088142;28;25385;-70
2023/03/01 01:18:18;;;;;;;45.30;23.27;;;;;;;-146.25;100.00;52295.19;2087852;28;26167;-69
2023/03/01 01:19:20;;;;;;;41.70;23.75;;;;;;;-146.25;100.00;52299.25;2086679;28;30462;-70
2023/03/01 01:20:22;;;;;;;48.10;24.88;;;;;;;-146.25;100.00;52295.19;2088343;28;20890;-70
2023/03/01 01:21:25;;;;;;;36.85;21.67;;;;;;;-146.25;100.00;52295.19;2088121;28;25190;-68
2023/03/01 01:22:27;;;;;;;43.40;23.60;;;;;;;-146.25;100.00;52295.19;2079054;28;20899;-69
2023/03/01 01:23:29;;;;;;;39.78;22.58;;;;;;;-146.25;100.00;52293.19;2079244;28;28496;-70
2023/03/01 01:24:31;;;;;;;40.30;22.05;;;;;;;-146.25;100.00;52260.72;2087271;28;27942;-70
2023/03/01 01:25:36;;;;;;;48.53;24.15;;;;;;;-146.25;100.00;52295.19;2088205;28;26021;-69
2023/03/01 01:26:38;;;;;;;40.67;22.02;;;;;;;-146.25;100.00;52319.53;2088062;28;26659;-69
2023/03/01 01:27:39;;;;;;;45.15;21.73;;;;;;;-146.25;100.00;52301.28;2088284;28;29234;-69
2023/03/01 01:28:41;;;;;;;37.45;21.48;;;;;;;-146.25;100.00;52337.78;2087636;28;22190;-69
2023/03/01 01:29:43;;;;;;;40.97;21.45;;;;;;;-146.25;100.00;52299.25;2088359;28;27844;-69
2023/03/01 01:30:45;;;;;;;41.15;22.65;;;;;;;-146.25;100.00;52266.81;2087878;28;27752;-69
2023/03/01 01:31:47;;;;;;;38.33;21.52;;;;;;;-146.25;100.00;52289.13;2086463;28;33396;-70
2023/03/01 01:32:48;;;;;;;37.72;21.70;;;;;;;-146.25;100.00;52315.47;2078592;28;29145;-69
2023/03/01 01:33:54;;;;;;;39.92;22.50;;;;;;;-146.25;100.00;52311.44;2078336;28;21027;-69
2023/03/01 01:34:55;;;;;;;37.05;20.65;;;;;;;-146.25;100.00;52347.91;2080061;28;27704;-69
2023/03/01 01:35:57;;;;;;;38.15;21.10;;;;;;;-146.25;100.00;52327.66;2087956;28;31143;-69
2023/03/01 01:37:02;;;;;;;41.95;22.25;;;;;;;-146.25;100.00;52293.19;2079314;28;20941;-69
2023/03/01 01:38:04;;;;;;;36.22;20.25;;;;;;;-146.25;100.00;52315.47;2080052;28;20042;-69
2023/03/01 01:39:07;;;;;;;39.40;20.52;;;;;;;-146.25;100.00;52337.78;2088035;28;22610;-69
2023/03/01 01:40:09;;;;;;;36.28;19.50;;;;;;;-146.25;100.00;52313.44;2097386;28;20511;-69
2023/03/01 01:41:13;;;;;;;38.78;19.77;;;;;;;-146.25;100.00;52283.03;2087077;28;35299;-69
2023/03/01 01:42:17;;;;;;;40.60;22.85;;;;;;;-146.25;100.00;52315.47;2087991;28;20033;-70
2023/03/01 01:43:32;;;;;;;39.92;21.70;;;;;;;-146.25;100.00;52315.47;2088273;28;20906;-69
2023/03/01 01:44:34;;;;;;;40.65;20.63;;;;;;;-146.25;100.00;52303.31;2088414;28;20103;-69
2023/03/01 01:45:36;;;;;;;35.38;19.95;;;;;;;-146.25;100.00;52303.31;2087549;28;20061;-69
2023/03/01 01:46:44;;;;;;;43.28;22.98;;;;;;;-146.25;100.00;52305.34;2078738;28;20038;-69
2023/03/01 01:47:48;;;;;;;46.40;22.73;;;;;;;-146.25;100.00;52303.31;2079318;28;24869;-69
2023/03/01 01:48:59;;;;;;;44.25;23.50;;;;;;;-146.25;100.00;52291.16;2063400;28;31279;-69
2023/03/01 01:50:01;;;;;;;42.28;22.35;;;;;;;-146.25;100.00;52293.19;2074534;28;29029;-70
2023/03/01 01:51:03;;;;;;;37.28;20.55;;;;;;;-146.25;100.00;52311.44;2070060;28;27994;-70
2023/03/01 01:52:14;;;;;;;51.22;23.35;;;;;;;-146.25;100.00;52321.56;2063360;28;25532;-69
2023/03/01 01:53:19;;;;;;;;;;;;;;;-146.25;100.00;52295.19;2072937;28;20046;-69
2023/03/01 01:54:31;;;;;;;43.75;20.45;;;;;;;-146.25;100.00;52276.97;2080148;28;19929;-69
2023/03/01 01:55:34;;;;;;;41.72;21.35;;;;;;;-146.25;100.00;52337.78;2078598;28;28243;-69
2023/03/01 01:56:38;;;;;;;41.38;21.42;;;;;;;-146.25;100.00;52285.06;2071763;28;20038;-69
2023/03/01 01:57:47;;;;;;;41.67;21.42;;;;;;;-146.25;100.00;52343.88;2079896;28;20871;-69
2023/03/01 01:58:50;;;;;;;45.92;23.48;;;;;;;-146.25;100.00;52268.84;2087532;28;23224;-69
2023/03/01 01:59:58;;;;;;;39.33;20.90;;;;;;;-146.25;100.00;52343.88;2087286;28;20716;-68
2023/03/01 02:01:01;;;;;;;40.42;21.55;;;;;;;-146.25;100.00;52331.69;2071555;28;20038;-69
2023/03/01 02:02:04;;;;;;;38.08;21.58;;;;;;;-146.25;100.00;52246.53;2072071;28;20042;-69
2023/03/01 02:03:19;;;;;;;43.50;21.77;;;;;;;-146.25;100.00;52309.41;2088249;28;20034;-69
2023/03/01 02:04:22;;;;;;;37.92;20.73;;;;;;;-146.25;100.00;52307.38;2079240;28;26146;-67
2023/03/01 02:05:43;;;;;;;40.10;21.77;;;;;;;-146.25;100.00;52289.13;2072578;28;20871;-69
2023/03/01 02:07:16;;;;;;;41.65;21.67;;;;;;;-146.25;100.00;52297.22;2073682;28;20046;-69
2023/03/01 02:08:21;;;;;;;39.38;20.48;;;;;;;-146.25;100.00;52311.44;2084193;28;20858;-69
2023/03/01 02:09:25;;;;;;;42.35;20.80;;;;;;;-146.25;100.00;52335.75;2078373;28;37066;-69
2023/03/01 02:10:28;;;;;;;37.45;21.02;;;;;;;-146.25;100.00;52291.16;2081323;28;27917;-69
2023/03/01 02:11:32;;;;;;;38.78;20.73;;;;;;;-146.25;100.00;52307.38;2087487;28;32672;-69
2023/03/01 02:12:34;;;;;;;42.10;23.27;;;;;;;-146.25;100.00;52333.72;2079679;28;34840;-68
2023/03/01 02:13:36;;;;;;;41.75;21.67;;;;;;;-146.25;100.00;52274.94;2073190;28;20855;-69
2023/03/01 02:14:38;;;;;;;46.65;23.60;;;;;;;-146.25;100.00;52341.84;2080291;28;34553;-69
2023/03/01 02:15:43;;;;;;;40.40;23.10;;;;;;;-146.25;100.00;52307.38;2088915;28;20048;-69
2023/03/01 02:16:46;;;;;;;50.10;24.70;;;;;;;-146.25;100.00;52291.16;2080718;28;26739;-71
2023/03/01 02:17:48;;;;;;;52.90;25.65;;;;;;;-146.25;100.00;52295.19;2081117;28;32323;-69
2023/03/01 02:18:50;;;;;;;49.40;25.20;;;;;;;-146.25;100.00;52268.84;2088773;28;25597;-69
2023/03/01 02:20:11;;;;;;;47.70;24.67;;;;;;;-146.25;100.00;52323.59;2080016;28;31371;-70
2023/03/01 02:21:25;;;;;;;48.83;24.08;;;;;;;-146.25;100.00;52285.06;2075172;28;22542;-69
2023/03/01 02:22:32;;;;;;;52.95;24.50;;;;;;;-146.25;100.00;52311.44;2083867;28;20041;-69
2023/03/01 02:23:34;;;;;;;53.47;25.77;;;;;;;-146.25;100.00;52295.19;2072168;28;20368;-70
2023/03/01 02:24:42;;;;;;;46.90;24.42;;;;;;;-146.25;100.00;52295.19;2064011;28;32896;-69
2023/03/01 02:25:54;;;;;;;47.10;23.88;;;;;;;-146.25;100.00;52274.94;2081747;28;20149;-69
2023/03/01 02:26:58;;;;;;;45.75;23.55;;;;;;;-146.25;100.00;52297.22;2088026;28;29108;-68
2023/03/01 02:28:17;;;;;;;42.17;23.00;;;;;;;-146.25;100.00;52323.59;2080972;28;20041;-69
2023/03/01 02:29:22;;;;;;;44.63;22.23;;;;;;;-146.25;100.00;52364.13;2075264;28;21004;-69
2023/03/01 02:30:25;;;;;;;43.08;22.50;;;;;;;-146.25;100.00;52325.63;2083156;28;20225;-69
2023/03/01 02:31:41;;;;;;;48.70;24.40;;;;;;;-146.25;100.00;52335.75;2096929;28;21585;-69
2023/03/01 02:32:43;;;;;;;43.72;23.80;;;;;;;-146.25;100.00;52301.28;2087890;28;31505;-69
2023/03/01 02:33:45;;;;;;;43.65;22.02;;;;;;;-146.25;100.00;52331.69;2088877;28;25784;-69
2023/03/01 02:34:47;;;;;;;51.10;24.58;;;;;;;-146.25;100.00;52307.38;2096976;28;32050;-69
2023/03/01 02:35:49;;;;;;;43.20;23.58;;;;;;;-146.25;100.00;52289.13;2096440;28;30367;-69
2023/03/01 02:37:01;;;;;;;45.05;23.48;;;;;;;-146.25;100.00;52319.53;2077871;28;27007;-69
2023/03/01 02:38:08;;;;;;;45.35;22.85;;;;;;;-146.25;100.00;52289.13;2067558;28;20134;-69
2023/03/01 02:39:16;;;;;;;44.05;21.90;;;;;;;-146.25;100.00;52283.03;2077439;28;29601;-69
2023/03/01 02:40:21;;;;;;;46.17;22.95;;;;;;;-146.25;100.00;52317.50;2087127;28;20087;-69
2023/03/01 02:41:26;;;;;;;50.70;25.05;;;;;;;-146.25;100.00;52313.44;2079473;28;31716;-69
2023/03/01 02:42:40;;;;;;;46.58;23.13;;;;;;;-146.25;100.00;52276.97;2088758;28;20050;-69
2023/03/01 02:43:45;;;;;;;46.35;25.08;;;;;;;-146.25;100.00;52305.34;2077403;28;28325;-70
2023/03/01 02:44:49;;;;;;;47.88;22.95;;;;;;;-146.25;100.00;52307.38;2065708;28;20043;-69
2023/03/01 02:45:53;;;;;;;47.25;23.30;;;;;;;-146.25;100.00;52299.25;2072395;28;20781;-69
2023/03/01 02:47:00;;;;;;;42.08;22.00;;;;;;;-146.25;100.00;52351.97;2080864;28;20153;-69
2023/03/01 02:48:03;;;;;;;46.53;24.08;;;;;;;-146.25;100.00;52319.53;2080100;28;20127;-69
2023/03/01 02:49:26;;;;;;;44.45;23.60;;;;;;;-146.25;100.00;52301.28;2080490;28;20057;-69
2023/03/01 02:50:55;;;;;;;51.42;25.02;;;;;;;-146.25;100.00;52299.25;2080374;28;20969;-69
2023/03/01 02:52:41;;;;;;;50.45;24.67;;;;;;;-146.25;100.00;52323.59;2085580;28;26666;-68
2023/03/01 02:54:19;;;;;;;52.20;23.60;;;;;;;-146.25;100.00;52303.31;2079856;28;21011;-69
2023/03/01 02:55:24;;;;;;;43.70;23.73;;;;;;;-146.25;100.00;52339.81;2077446;28;20985;-69
2023/03/01 02:56:26;;;;;;;52.78;23.73;;;;;;;-146.25;100.00;52307.38;2079836;28;27307;-69
2023/03/01 02:57:31;;;;;;;53.20;24.52;;;;;;;-146.25;100.00;52311.44;2080104;28;23431;-69
2023/03/01 02:58:44;;;;;;;49.65;24.83;;;;;;;-146.25;100.00;52291.16;2072001;28;20119;-69
2023/03/01 02:59:49;;;;;;;47.65;23.17;;;;;;;-146.25;100.00;52274.94;2075803;28;20792;-69
2023/03/01 03:00:54;;;;;;;46.70;24.13;;;;;;;-146.25;100.00;52325.63;2079774;28;20050;-69
2023/03/01 03:02:00;;;;;;;49.53;23.55;;;;;;;-146.25;100.00;52349.94;2080299;28;20127;-69
2023/03/01 03:03:03;;;;;;;48.25;24.50;;;;;;;-146.25;100.00;52337.78;2078404;28;20973;-69
2023/03/01 03:04:16;;;;;;;50.45;24.13;;;;;;;-146.25;100.00;52285.06;2080223;28;35450;-69
2023/03/01 03:05:27;;;;;;;48.50;22.90;;;;;;;-146.25;100.00;52311.44;2080310;28;20045;-69
2023/03/01 03:06:32;;;;;;;;;;;;;;;-146.25;100.00;52299.25;2081025;28;20057;-69
2023/03/01 03:07:39;;;;;;;41.50;21.35;;;;;;;-146.25;100.00;52327.66;2080491;28;20676;-69
2023/03/01 03:08:43;;;;;;;46.53;23.27;;;;;;;-146.25;100.00;52307.38;2080313;28;20034;-69
2023/03/01 03:09:45;;;;;;;42.42;22.30;;;;;;;-146.25;100.00;52307.38;2080722;28;20123;-69
2023/03/01 03:10:47;;;;;;;44.78;22.00;;;;;;;-146.25;100.00;52281.00;2088907;28;20052;-69
2023/03/01 03:11:49;;;;;;;48.70;23.85;;;;;;;-146.25;100.00;52281.00;2080180;28;20050;-69
2023/03/01 03:13:01;;;;;;;45.22;23.35;;;;;;;-146.25;100.00;52315.47;2071923;28;20086;-69
2023/03/01 03:14:12;;;;;;;45.70;23.60;;;;;;;-146.25;100.00;52276.97;2082144;28;20046;-70
2023/03/01 03:15:17;;;;;;;41.75;21.73;;;;;;;-146.25;100.00;52305.34;2089348;28;20092;-69
2023/03/01 03:16:20;;;;;;;48.10;23.52;;;;;;;-146.25;100.00;52307.38;2079150;28;22597;-69
2023/03/01 03:17:24;;;;;;;52.13;25.95;;;;;;;-146.25;100.00;52307.38;2080418;28;20054;-69
2023/03/01 03:18:26;;;;;;;49.63;25.13;;;;;;;-146.25;100.00;52274.94;2088035;28;29563;-69
2023/03/01 03:19:28;;;;;;;45.97;23.88;;;;;;;-146.25;100.00;52319.53;2089088;28;20155;-69
2023/03/01 03:20:30;;;;;;;54.22;25.73;;;;;;;-146.25;100.00;52323.59;2089484;28;20037;-70
2023/03/01 03:21:33;;;;;;;49.45;24.52;;;;;;;-146.25;100.00;52305.34;2087959;28;38031;-69
2023/03/01 03:22:35;;;;;;;46.47;23.77;;;;;;;-146.25;100.00;52303.31;2088135;28;20065;-69
2023/03/01 03:23:37;;;;;;;55.65;26.60;;;;;;;-146.25;100.00;52311.44;2087973;28;34949;-69
2023/03/01 03:24:41;;;;;;;53.75;25.88;;;;;;;-146.25;100.00;52317.50;2088384;28;20042;-70
2023/03/01 03:25:43;;;;;;;47.15;24.80;;;;;;;-146.25;100.00;52307.38;2089068;28;20987;-69
2023/03/01 03:26:45;;;;;;;48.40;24.52;;;;;;;-146.25;100.00;52333.72;2089222;28;20053;-69
2023/03/01 03:27:56;;;;;;;43.35;23.92;;;;;;;-146.25;100.00;52295.19;2089459;28;20888;-69
2023/03/01 03:29:00;;;;;;;49.38;26.02;;;;;;;-146.25;100.00;52309.41;2088879;28;29451;-68
2023/03/01 03:30:02;;;;;;;43.75;23.35;;;;;;;-146.25;100.00;52325.63;2088460;28;33562;-69
2023/03/01 03:31:06;;;;;;;52.50;24.98;;;;;;;-146.25;100.00;52301.28;2088493;28;37832;-69
2023/03/01 03:32:08;;;;;;;49.88;25.27;;;;;;;-146.25;100.00;52327.66;2080121;28;20143;-70
2023/03/01 03:33:11;;;;;;;57.97;26.35;;;;;;;-146.25;100.00;52291.16;2080425;28;31693;-69
2023/03/01 03:34:17;;;;;;;60.60;28.42;;;;;;;-146.25;100.00;52339.81;2071893;28;28732;-69
2023/03/01 03:35:24;;;;;;;53.83;26.88;;;;;;;-146.25;100.00;52299.25;2073489;28;20050;-69
2023/03/01 03:36:26;;;;;;;52.70;25.88;;;;;;;-146.25;100.00;52335.75;2088769;28;36520;-69
2023/03/01 03:38:48;;;;;;;;;;;;;;;-146.25;100.00;52313.44;2089177;28;33904;-69
2023/03/01 03:39:54;;;;;;;48.25;21.63;;;;;;;-146.25;100.00;52307.38;2088047;28;34287;-69
2023/03/01 03:41:07;;;;;;;52.25;22.88;;;;;;;-146.25;100.00;52319.53;2088888;28;31864;-69
2023/03/01 03:42:09;;;;;;;49.55;23.58;;;;;;;-146.25;100.00;52295.19;2088448;28;36350;-69
2023/03/01 03:43:22;;;;;;;49.35;23.58;;;;;;;-146.25;100.00;52305.34;2088890;28;21038;-69
2023/03/01 03:44:24;;;;;;;45.67;22.77;;;;;;;-146.25;100.00;52305.34;2088015;28;37481;-69
2023/03/01 03:45:26;;;;;;;51.00;24.50;;;;;;;-146.25;100.00;52325.63;2088230;28;34335;-70
2023/03/01 03:46:28;;;;;;;44.85;24.17;;;;;;;-146.25;100.00;52307.38;2087930;28;34265;-70
2023/03/01 03:47:29;;;;;;;51.10;25.65;;;;;;;-146.25;100.00;52287.09;2088144;28;38634;-69
2023/03/01 03:48:35;;;;;;;49.80;24.65;;;;;;;-146.25;100.00;52319.53;2088916;28;20041;-69
2023/03/01 03:49:36;;;;;;;46.47;24.02;;;;;;;-146.25;100.00;52323.59;2089010;28;20872;-70
2023/03/01 03:50:40;;;;;;;49.90;24.42;;;;;;;-146.25;100.00;52311.44;2088478;28;35813;-70
2023/03/01 03:51:42;;;;;;;46.92;24.08;;;;;;;-146.25;100.00;52337.78;2088302;28;34014;-69
2023/03/01 03:52:44;;;;;;;50.55;24.95;;;;;;;-146.25;100.00;52337.78;2088398;28;33003;-70
2023/03/01 03:53:46;;;;;;;45.60;24.92;;;;;;;-146.25;100.00;52327.66;2087673;28;35430;-69
2023/03/01 03:54:47;;;;;;;55.90;25.55;;;;;;;-146.25;100.00;52303.31;2088868;28;20139;-70
2023/03/01 03:55:51;;;;;;;51.15;25.20;;;;;;;-146.25;100.00;52364.13;2088199;28;35266;-70
2023/03/01 03:56:53;;;;;;;55.53;26.80;;;;;;;-146.25;100.00;52303.31;2088224;28;34596;-70
2023/03/01 03:57:57;;;;;;;46.92;23.48;;;;;;;-146.25;100.00;52307.38;2088220;28;34453;-70
2023/03/01 03:58:59;;;;;;;53.33;25.17;;;;;;;-146.25;100.00;52339.81;2079438;28;34647;-70
2023/03/01 04:00:05;;;;;;;47.03;23.92;;;;;;;-146.25;100.00;52335.75;2080796;28;20042;-70
2023/03/01 04:01:12;;;;;;;53.53;25.13;;;;;;;-146.25;100.00;52335.75;2088329;28;20041;-70
2023/03/01 04:02:21;;;;;;;53.45;25.42;;;;;;;-146.25;100.00;52331.69;2087989;28;32124;-70
2023/03/01 04:03:26;;;;;;;54.45;25.27;;;;;;;-146.25;100.00;52291.16;2087858;28;35238;-69
2023/03/01 04:04:30;;;;;;;50.28;23.20;;;;;;;-146.25;100.00;52335.75;2087987;28;36682;-70
2023/03/01 04:05:32;;;;;;;46.72;24.13;;;;;;;-146.25;100.00;52331.69;2088303;28;35208;-70
2023/03/01 04:06:34;;;;;;;50.13;25.05;;;;;;;-146.25;100.00;52349.94;2088113;28;34933;-70
2023/03/01 04:07:37;;;;;;;48.60;25.75;;;;;;;-146.25;100.00;52349.94;2088668;28;34656;-70
2023/03/01 04:08:40;;;;;;;48.25;23.15;;;;;;;-146.25;100.00;52299.25;2088450;28;20034;-70
2023/03/01 04:09:44;;;;;;;44.72;22.73;;;;;;;-146.25;100.00;52293.19;2088957;28;20044;-70
2023/03/01 04:10:49;;;;;;;51.55;25.30;;;;;;;-146.25;100.00;52337.78;2088012;28;34614;-70
2023/03/01 04:11:53;;;;;;;45.88;23.65;;;;;;;-146.25;100.00;52313.44;2088950;28;20045;-70
2023/03/01 04:12:57;;;;;;;50.53;24.95;;;;;;;-146.25;100.00;52323.59;2087305;28;34078;-70
2023/03/01 04:13:59;;;;;;;50.85;24.73;;;;;;;-146.25;100.00;52349.94;2088087;28;33119;-70
2023/03/01 04:15:12;;;;;;;52.47;24.92;;;;;;;-146.25;100.00;52307.38;2080054;28;20088;-70
2023/03/01 04:16:14;;;;;;;49.20;24.05;;;;;;;-146.25;100.00;52291.16;2081351;28;37038;-69
2023/03/01 04:17:16;;;;;;;48.85;23.80;;;;;;;-146.25;100.00;52327.66;2088716;28;20156;-70
2023/03/01 04:18:21;;;;;;;54.63;24.33;;;;;;;-146.25;100.00;52335.75;2088303;28;33176;-70
2023/03/01 04:19:22;;;;;;;51.13;24.95;;;;;;;-146.25;100.00;52295.19;2087092;28;32152;-70
2023/03/01 04:20:33;;;;;;;56.13;25.58;;;;;;;-146.25;100.00;52331.69;2088879;28;20949;-69
2023/03/01 04:21:36;;;;;;;;;;;;;;;-146.25;100.00;52311.44;2088552;28;36146;-69
2023/03/01 04:22:41;;;;;;;44.22;20.85;;;;;;;-146.25;100.00;52349.94;2088733;28;20701;-70
2023/03/01 04:23:43;;;;;;;43.38;22.60;;;;;;;-146.25;100.00;52327.66;2088210;28;31768;-70
2023/03/01 04:24:45;;;;;;;47.85;23.40;;;;;;;-146.25;100.00;52303.31;2088383;28;29369;-70
2023/03/01 04:25:56;;;;;;;54.42;24.67;;;;;;;-146.25;100.00;52311.44;2088014;28;37038;-70
2023/03/01 04:26:58;;;;;;;41.90;21.23;;;;;;;-146.25;100.00;52323.59;2088865;28;20315;-69
2023/03/01 04:28:00;;;;;;;47.30;23.48;;;;;;;-146.25;100.00;52311.44;2087437;28;39784;-70
2023/03/01 04:29:01;;;;;;;47.88;23.70;;;;;;;-146.25;100.00;52333.72;2088266;28;30176;-70
2023/03/01 04:30:04;;;;;;;54.08;24.35;;;;;;;-146.25;100.00;52289.13;2088025;28;29299;-69
2023/03/01 04:31:15;;;;;;;50.83;24.38;;;;;;;-146.25;100.00;52321.56;2079430;28;33006;-70
2023/03/01 04:32:20;;;;;;;42.60;22.52;;;;;;;-146.25;100.00;52327.66;2082418;28;20038;-70
2023/03/01 04:33:24;;;;;;;48.47;23.75;;;;;;;-146.25;100.00;52327.66;2088138;28;30064;-70
2023/03/01 04:34:28;;;;;;;50.25;24.38;;;;;;;-146.25;100.00;52337.78;2087899;28;33508;-69
2023/03/01 04:35:32;;;;;;;50.05;23.65;;;;;;;-146.25;100.00;52301.28;2087581;28;33468;-70
2023/03/01 04:36:35;;;;;;;44.05;23.10;;;;;;;-146.25;100.00;52315.47;2087940;28;36245;-70
2023/03/01 04:37:38;;;;;;;47.90;22.63;;;;;;;-146.25;100.00;52349.94;2079524;28;25666;-70
2023/03/01 04:38:41;;;;;;;50.67;24.88;;;;;;;-146.25;100.00;52333.72;2078649;28;32105;-69
2023/03/01 04:39:45;;;;;;;47.13;22.85;;;;;;;-146.25;100.00;52307.38;2088235;28;35019;-70
2023/03/01 04:40:47;;;;;;;49.42;24.33;;;;;;;-146.25;100.00;52307.38;2088142;28;34219;-70
2023/03/01 04:41:49;;;;;;;48.08;23.85;;;;;;;-146.25;100.00;52297.22;2087513;28;33124;-69
2023/03/01 04:42:51;;;;;;;49.20;23.48;;;;;;;-146.25;100.00;52299.25;2089034;28;20041;-70
2023/03/01 04:43:52;;;;;;;49.78;24.27;;;;;;;-146.25;100.00;52319.53;2087863;28;33698;-69
2023/03/01 04:44:54;;;;;;;50.20;25.60;;;;;;;-146.25;100.00;52305.34;2087734;28;36238;-70
2023/03/01 04:46:07;;;;;;;44.90;23.35;;;;;;;-146.25;100.00;52327.66;2087969;28;36333;-69
2023/03/01 04:47:09;;;;;;;47.00;22.60;;;;;;;-146.25;100.00;52347.91;2088544;28;36265;-69
2023/03/01 04:48:11;;;;;;;53.90;25.40;;;;;;;-146.25;100.00;52307.38;2088616;28;20938;-69
2023/03/01 04:49:13;;;;;;;46.80;22.50;;;;;;;-146.25;100.00;52297.22;2087716;28;38689;-69